createdAt,value
2022-12-08T00:01:41.987Z,99485.75
2022-12-08T00:04:10.214Z,99473.84
2022-12-08T00:06:57.148Z,99481.75
2022-12-08T00:09:27.194Z,99489.69
2022-12-08T00:11:59.069Z,99491.06
2022-12-08T00:14:28.967Z,99514.63
2022-12-08T00:16:56.728Z,99514.13
2022-12-08T00:19:24.950Z,99519.50
2022-12-08T00:21:52.942Z,99519.75
2022-12-08T00:24:20.664Z,99520.28
2022-12-08T00:26:48.489Z,99524.81
2022-12-08T00:29:17.667Z,99526.50
2022-12-08T00:31:45.289Z,99516.81
2022-12-08T00:34:13.238Z,99523.09
2022-12-08T00:37:05.523Z,99525.88
2022-12-08T00:39:33.071Z,99530.59
2022-12-08T00:42:12.421Z,99524.59
2022-12-08T00:44:40.561Z,99537.53
2022-12-08T00:47:07.872Z,99532.09
2022-12-08T00:49:35.213Z,99539.16
2022-12-08T00:52:02.546Z,99546.00
2022-12-08T00:54:33.949Z,99545.75
2022-12-08T00:57:01.266Z,99549.69
2022-12-08T00:59:28.792Z,99546.28
2022-12-08T01:01:56.163Z,99556.09
2022-12-08T01:04:24.583Z,99555.81
2022-12-08T01:09:35.883Z,99562.31
2022-12-08T01:12:03.284Z,99563.25
2022-12-08T01:14:30.845Z,99570.75
2022-12-08T01:16:58.207Z,99573.88
2022-12-08T01:19:25.845Z,99578.28
2022-12-08T01:21:53.099Z,99584.00
2022-12-08T01:24:45.717Z,99594.72
2022-12-08T01:27:15.374Z,99594.94
2022-12-08T01:29:42.693Z,99603.59
2022-12-08T01:32:10.062Z,99599.34
2022-12-08T01:34:37.639Z,99609.59
2022-12-08T01:37:04.929Z,99617.91
2022-12-08T01:39:32.387Z,99611.28
2022-12-08T01:41:59.693Z,99605.41
2022-12-08T01:44:26.996Z,99611.47
2022-12-08T01:46:54.527Z,99613.72
2022-12-08T01:49:27.479Z,99610.50
2022-12-08T01:52:13.300Z,99615.72
2022-12-08T01:54:44.198Z,99611.25
2022-12-08T01:57:18.704Z,99607.56
2022-12-08T01:59:48.732Z,99620.53
2022-12-08T02:02:16.454Z,99612.53
2022-12-08T02:04:43.943Z,99616.72
2022-12-08T02:07:12.462Z,99617.78
2022-12-08T02:09:40.924Z,99621.47
2022-12-08T02:12:09.103Z,99623.03
2022-12-08T02:14:38.634Z,99621.72
2022-12-08T02:17:16.912Z,99624.53
2022-12-08T02:19:47.970Z,99627.94
2022-12-08T02:22:19.274Z,99628.78
2022-12-08T02:25:12.784Z,99628.41
2022-12-08T02:27:49.436Z,99646.91
2022-12-08T02:30:30.865Z,99643.50
2022-12-08T02:32:58.224Z,99636.28
2022-12-08T02:35:50.822Z,99645.53
2022-12-08T02:38:30.434Z,99644.63
2022-12-08T02:41:16.388Z,99639.41
2022-12-08T02:43:52.933Z,99645.81
2022-12-08T02:46:35.760Z,99636.41
2022-12-08T02:49:08.493Z,99655.81
2022-12-08T02:51:35.789Z,99653.59
2022-12-08T02:54:03.770Z,99674.06
2022-12-08T02:56:46.642Z,99666.31
2022-12-08T02:59:25.902Z,99677.75
2022-12-08T03:02:02.440Z,99673.91
2022-12-08T03:04:29.768Z,99676.63
2022-12-08T03:07:23.077Z,99675.63
2022-12-08T03:09:57.714Z,99681.47
2022-12-08T03:12:44.891Z,99686.41
2022-12-08T03:15:15.468Z,99679.22
2022-12-08T03:17:44.819Z,99688.16
2022-12-08T03:20:15.612Z,99688.31
2022-12-08T03:22:44.561Z,99687.38
2022-12-08T03:25:14.132Z,99682.34
2022-12-08T03:27:41.668Z,99698.13
2022-12-08T03:30:09.756Z,99699.25
2022-12-08T03:32:47.640Z,99710.03
2022-12-08T03:35:16.516Z,99714.78
2022-12-08T03:37:43.913Z,99725.53
2022-12-08T03:40:13.505Z,99736.97
2022-12-08T03:42:41.211Z,99749.22
2022-12-08T03:45:09.633Z,99752.06
2022-12-08T03:47:37.151Z,99766.56
2022-12-08T03:50:05.262Z,99759.69
2022-12-08T03:52:32.741Z,99763.16
2022-12-08T03:55:00.033Z,99757.88
2022-12-08T03:57:27.412Z,99755.22
2022-12-08T03:59:54.582Z,99748.47
2022-12-08T04:02:22.109Z,99754.09
2022-12-08T04:04:49.467Z,99764.13
2022-12-08T04:07:17.089Z,99733.56
2022-12-08T04:09:45.576Z,99764.41
2022-12-08T04:12:12.873Z,99786.66
2022-12-08T04:14:40.106Z,99803.97
2022-12-08T04:17:07.490Z,99800.09
2022-12-08T04:19:34.827Z,99797.63
2022-12-08T04:22:02.124Z,99792.25
2022-12-08T04:24:29.426Z,99804.97
2022-12-08T04:26:56.807Z,99801.75
2022-12-08T04:29:24.115Z,99798.84
2022-12-08T04:31:51.525Z,99818.63
2022-12-08T04:34:18.833Z,99815.94
2022-12-08T04:36:46.216Z,99825.78
2022-12-08T04:39:13.618Z,99830.16
2022-12-08T04:41:41.054Z,99834.28
2022-12-08T04:44:08.294Z,99846.53
2022-12-08T04:46:40.246Z,99852.13
2022-12-08T04:49:10.761Z,99857.22
2022-12-08T04:51:37.989Z,99855.31
2022-12-08T04:54:05.762Z,99862.03
2022-12-08T04:56:33.176Z,99871.56
2022-12-08T04:59:00.535Z,99885.84
2022-12-08T05:01:27.809Z,99889.63
2022-12-08T05:03:55.413Z,99901.31
2022-12-08T05:06:22.720Z,99923.31
2022-12-08T05:08:50.128Z,99916.19
2022-12-08T05:11:17.438Z,99912.50
2022-12-08T05:13:44.818Z,99931.09
2022-12-08T05:16:13.667Z,99939.41
2022-12-08T05:18:41.786Z,99959.97
2022-12-08T05:21:10.207Z,99958.28
2022-12-08T05:23:37.465Z,99952.88
2022-12-08T05:26:05.015Z,99956.19
2022-12-08T05:28:47.611Z,99945.78
2022-12-08T05:31:15.777Z,99943.53
2022-12-08T05:33:43.850Z,99945.19
2022-12-08T05:36:12.735Z,99950.19
2022-12-08T05:38:40.027Z,99959.72
2022-12-08T05:41:07.667Z,99962.88
2022-12-08T05:43:34.914Z,99972.09
2022-12-08T05:46:02.429Z,99961.94
2022-12-08T05:48:29.843Z,99974.91
2022-12-08T05:50:57.107Z,99972.31
2022-12-08T05:53:24.485Z,99971.59
2022-12-08T05:55:51.749Z,99976.06
2022-12-08T05:58:19.919Z,99984.91
2022-12-08T06:00:47.712Z,99990.94
2022-12-08T06:03:16.539Z,99982.47
2022-12-08T06:05:45.076Z,99994.34
2022-12-08T06:08:12.842Z,100008.56
2022-12-08T06:10:41.053Z,99997.16
2022-12-08T06:13:09.240Z,99953.63
2022-12-08T06:15:37.272Z,99993.47
2022-12-08T06:18:04.864Z,100006.34
2022-12-08T06:20:32.358Z,100021.59
2022-12-08T06:22:59.729Z,100021.38
2022-12-08T06:25:27.119Z,100030.19
2022-12-08T06:27:54.369Z,100032.63
2022-12-08T06:30:21.806Z,100041.19
2022-12-08T06:32:49.384Z,100029.44
2022-12-08T06:35:16.770Z,100042.66
2022-12-08T06:37:44.033Z,100063.19
2022-12-08T06:40:11.406Z,100056.13
2022-12-08T06:42:44.587Z,100060.25
2022-12-08T06:45:13.037Z,100067.59
2022-12-08T06:47:40.316Z,100065.56
2022-12-08T06:50:08.883Z,100082.41
2022-12-08T06:52:45.636Z,100082.00
2022-12-08T06:55:35.515Z,100080.16
2022-12-08T06:58:04.222Z,100074.00
2022-12-08T07:00:31.543Z,100088.38
2022-12-08T07:02:58.919Z,100093.88
2022-12-08T07:05:26.285Z,100095.38
2022-12-08T07:07:53.731Z,100107.50
2022-12-08T07:10:20.987Z,100103.53
2022-12-08T07:12:48.286Z,100110.38
2022-12-08T07:15:16.358Z,100104.31
2022-12-08T07:17:43.725Z,100104.28
2022-12-08T07:20:11.211Z,100109.63
2022-12-08T07:22:38.545Z,100100.72
2022-12-08T07:25:06.100Z,100104.03
2022-12-08T07:27:33.514Z,100127.47
2022-12-08T07:30:00.787Z,100133.78
2022-12-08T07:32:28.092Z,100131.34
2022-12-08T07:34:55.607Z,100138.06
2022-12-08T07:37:23.142Z,100152.84
2022-12-08T07:39:50.314Z,100154.19
2022-12-08T07:42:17.636Z,100162.38
2022-12-08T07:44:47.209Z,100174.56
2022-12-08T07:47:14.562Z,100181.88
2022-12-08T07:49:41.793Z,100181.53
2022-12-08T07:52:09.122Z,100185.28
2022-12-08T07:54:36.502Z,100190.84
2022-12-08T07:57:06.126Z,100205.53
2022-12-08T07:59:33.452Z,100205.44
2022-12-08T08:02:22.803Z,100191.81
2022-12-08T08:04:51.360Z,100213.97
2022-12-08T08:07:18.697Z,100199.75
2022-12-08T08:10:11.807Z,100201.97
2022-12-08T08:12:39.117Z,100223.06
2022-12-08T08:15:07.972Z,100232.28
2022-12-08T08:17:36.536Z,100229.84
2022-12-08T08:20:07.314Z,100232.03
2022-12-08T08:22:35.383Z,100244.31
2022-12-08T08:25:02.747Z,100237.94
2022-12-08T08:27:30.078Z,100249.03
2022-12-08T08:29:57.297Z,100253.00
2022-12-08T08:32:24.815Z,100246.47
2022-12-08T08:34:52.184Z,100262.53
2022-12-08T08:37:19.802Z,100263.00
2022-12-08T08:39:47.195Z,100261.59
2022-12-08T08:42:14.495Z,100269.63
2022-12-08T08:44:41.787Z,100272.47
2022-12-08T08:47:09.295Z,100275.19
2022-12-08T08:49:36.657Z,100291.78
2022-12-08T08:52:05.064Z,100293.47
2022-12-08T08:54:32.330Z,100300.88
2022-12-08T08:57:00.682Z,100310.81
2022-12-08T08:59:28.775Z,100314.22
2022-12-08T09:01:56.343Z,100308.94
2022-12-08T09:04:24.170Z,100318.81
2022-12-08T09:06:51.582Z,100328.59
2022-12-08T09:09:18.904Z,100328.94
2022-12-08T09:11:46.155Z,100335.72
2022-12-08T09:14:14.894Z,100335.47
2022-12-08T09:16:42.851Z,100332.88
2022-12-08T09:19:10.104Z,100337.88
2022-12-08T09:21:37.416Z,100330.38
2022-12-08T09:24:04.877Z,100333.84
2022-12-08T09:26:33.419Z,100330.63
2022-12-08T09:29:00.823Z,100328.75
2022-12-08T09:31:28.313Z,100331.00
2022-12-08T09:33:55.675Z,100326.41
2022-12-08T09:36:23.141Z,100333.16
2022-12-08T09:38:53.680Z,100340.25
2022-12-08T09:41:44.798Z,100333.28
2022-12-08T09:44:19.163Z,100348.34
2022-12-08T09:46:50.681Z,100349.31
2022-12-08T09:49:20.570Z,100345.44
2022-12-08T09:51:48.186Z,100346.69
2022-12-08T09:54:15.492Z,100348.69
2022-12-08T09:56:42.868Z,100344.75
2022-12-08T09:59:24.149Z,100355.94
2022-12-08T10:01:51.709Z,100352.28
2022-12-08T10:04:24.806Z,100343.72
2022-12-08T10:06:56.440Z,100344.59
2022-12-08T10:09:32.651Z,100343.84
2022-12-08T10:12:18.983Z,100346.91
2022-12-08T10:14:49.995Z,100348.03
2022-12-08T10:17:21.163Z,100347.59
2022-12-08T10:19:49.591Z,100343.25
2022-12-08T10:22:24.819Z,100348.69
2022-12-08T10:24:56.018Z,100341.47
2022-12-08T10:27:23.690Z,100355.66
2022-12-08T10:29:50.970Z,100349.19
2022-12-08T10:32:20.417Z,100348.69
2022-12-08T10:35:07.908Z,100354.56
2022-12-08T10:37:35.676Z,100350.06
2022-12-08T10:40:09.236Z,100349.00
2022-12-08T10:42:38.971Z,100349.31
2022-12-08T10:45:09.707Z,100351.50
2022-12-08T10:47:38.344Z,100355.38
2022-12-08T10:50:22.741Z,100349.56
2022-12-08T10:53:08.285Z,100350.06
2022-12-08T10:55:44.337Z,100350.53
2022-12-08T10:58:24.074Z,100350.56
2022-12-08T11:00:55.958Z,100346.50
2022-12-08T11:03:43.613Z,100355.25
2022-12-08T11:06:14.824Z,100347.94
2022-12-08T11:09:01.768Z,100356.19
2022-12-08T11:11:54.759Z,100356.19
2022-12-08T11:14:32.677Z,100350.13
2022-12-08T11:17:20.011Z,100353.25
2022-12-08T11:20:01.047Z,100355.72
2022-12-08T11:22:37.905Z,100357.25
2022-12-08T11:25:08.050Z,100355.56
2022-12-08T11:27:36.864Z,100357.44
2022-12-08T11:30:12.615Z,100357.44
2022-12-08T11:33:06.498Z,100361.38
2022-12-08T11:35:35.557Z,100361.16
2022-12-08T11:38:20.538Z,100368.03
2022-12-08T11:41:15.829Z,100358.94
2022-12-08T11:43:56.133Z,100355.03
2022-12-08T11:46:32.263Z,100358.53
2022-12-08T11:49:06.438Z,100364.19
2022-12-08T11:51:39.653Z,100362.97
2022-12-08T11:54:11.512Z,100368.03
2022-12-08T11:57:05.193Z,100364.34
2022-12-08T11:59:34.811Z,100365.59
2022-12-08T12:02:03.054Z,100370.84
2022-12-08T12:04:33.564Z,100371.69
2022-12-08T12:07:26.499Z,100371.50
2022-12-08T12:10:09.378Z,100383.34
2022-12-08T12:12:51.960Z,100376.69
2022-12-08T12:15:22.028Z,100368.69
2022-12-08T12:17:52.044Z,100376.00
2022-12-08T12:20:25.346Z,100371.50
2022-12-08T12:22:56.815Z,100377.03
2022-12-08T12:25:25.899Z,100378.59
2022-12-08T12:27:57.897Z,100377.25
2022-12-08T12:30:26.698Z,100385.03
2022-12-08T12:32:57.045Z,100382.13
2022-12-08T12:35:38.493Z,100379.19
2022-12-08T12:38:27.959Z,100389.94
2022-12-08T12:41:00.437Z,100397.59
2022-12-08T12:43:32.697Z,100405.41
2022-12-08T12:46:18.417Z,100421.34
2022-12-08T12:48:45.842Z,100418.72
2022-12-08T12:51:32.115Z,100434.50
2022-12-08T12:54:19.373Z,100440.56
2022-12-08T12:56:48.407Z,100447.03
2022-12-08T12:59:44.505Z,100451.09
2022-12-08T13:02:20.521Z,100452.81
2022-12-08T13:04:57.076Z,100444.19
2022-12-08T13:07:26.822Z,100448.47
2022-12-08T13:10:11.229Z,100445.66
2022-12-08T13:12:38.702Z,100462.97
2022-12-08T13:15:07.147Z,100446.41
2022-12-08T13:17:37.044Z,100442.66
2022-12-08T13:20:06.589Z,100445.22
2022-12-08T13:22:52.767Z,100440.84
2022-12-08T13:25:39.059Z,100439.69
2022-12-08T13:28:15.546Z,100431.94
2022-12-08T13:30:45.763Z,100447.22
2022-12-08T13:33:19.096Z,100447.22
2022-12-08T13:36:09.962Z,100448.47
2022-12-08T13:38:38.830Z,100443.09
2022-12-08T13:41:13.746Z,100443.56
2022-12-08T13:43:57.795Z,100442.03
2022-12-08T13:58:50.010Z,100451.53
2022-12-08T14:01:20.201Z,100462.47
2022-12-08T14:04:20.487Z,100450.81
2022-12-08T14:06:39.198Z,100437.44
2022-12-08T14:09:11.217Z,100439.13
2022-12-08T14:11:44.743Z,100433.97
2022-12-08T14:14:27.227Z,100440.03
2022-12-08T14:17:10.017Z,100437.03
2022-12-08T14:19:37.541Z,100452.00
2022-12-08T14:22:11.976Z,100460.69
2022-12-08T14:24:40.596Z,100466.13
2022-12-08T14:27:10.954Z,100467.84
2022-12-08T14:29:55.418Z,100462.25
2022-12-08T14:32:24.733Z,100451.84
2022-12-08T14:35:11.767Z,100457.19
2022-12-08T14:37:43.292Z,100447.81
2022-12-08T14:40:22.984Z,100457.31
2022-12-08T14:43:05.169Z,100447.81
2022-12-08T14:45:35.338Z,100450.88
2022-12-08T14:48:20.942Z,100452.38
2022-12-08T14:50:57.159Z,100454.22
2022-12-08T14:53:25.118Z,100447.66
2022-12-08T14:55:52.517Z,100455.75
2022-12-08T14:58:27.924Z,100458.81
2022-12-08T15:00:58.537Z,100455.41
2022-12-08T15:03:30.314Z,100465.38
2022-12-08T15:06:04.905Z,100458.44
2022-12-08T15:08:32.356Z,100454.53
2022-12-08T15:11:25.051Z,100457.88
2022-12-08T15:13:53.107Z,100451.41
2022-12-08T15:16:27.158Z,100445.94
2022-12-08T15:19:16.276Z,100447.41
2022-12-08T15:22:09.828Z,100453.91
2022-12-08T15:24:40.291Z,100454.53
2022-12-08T15:27:07.643Z,100453.47
2022-12-08T15:29:35.024Z,100464.22
2022-12-08T15:32:02.686Z,100461.63
2022-12-08T15:34:31.651Z,100467.78
2022-12-08T15:36:59.005Z,100472.03
2022-12-08T15:39:33.200Z,100470.44
2022-12-08T15:42:01.409Z,100480.03
2022-12-08T15:44:32.997Z,100473.25
2022-12-08T15:47:00.548Z,100470.88
2022-12-08T15:49:27.999Z,100474.97
2022-12-08T15:52:04.957Z,100466.13
2022-12-08T15:54:37.835Z,100468.91
2022-12-08T15:57:25.043Z,100464.53
2022-12-08T15:59:52.928Z,100470.41
2022-12-08T16:02:22.896Z,100467.00
2022-12-08T16:07:38.504Z,100482.78
2022-12-08T16:10:07.490Z,100487.47
2022-12-08T16:15:59.025Z,100482.06
2022-12-08T16:18:31.768Z,100482.50
2022-12-08T16:23:46.632Z,100487.28
2022-12-08T16:29:06.600Z,100479.63
2022-12-08T16:31:33.992Z,100475.59
2022-12-08T16:34:01.468Z,100474.88
2022-12-08T16:36:28.752Z,100476.13
2022-12-08T16:38:56.144Z,100478.16
2022-12-08T16:41:41.724Z,100481.34
2022-12-08T16:44:09.135Z,100477.94
2022-12-08T16:46:37.172Z,100471.72
2022-12-08T16:49:07.838Z,100479.41
2022-12-08T16:51:35.280Z,100473.59
2022-12-08T16:54:02.560Z,100474.91
2022-12-08T16:56:33.376Z,100480.38
2022-12-08T16:59:02.140Z,100482.13
2022-12-08T17:01:29.993Z,100481.59
2022-12-08T17:06:45.090Z,100483.91
2022-12-08T17:09:12.390Z,100488.88
2022-12-08T17:11:43.428Z,100489.53
2022-12-08T17:14:12.031Z,100488.88
2022-12-08T17:16:39.540Z,100487.47
2022-12-08T17:19:06.926Z,100487.00
2022-12-08T17:21:34.184Z,100487.28
2022-12-08T17:24:01.741Z,100480.63
2022-12-08T17:26:29.009Z,100494.94
2022-12-08T17:29:01.018Z,100486.31
2022-12-08T17:31:31.522Z,100489.34
2022-12-08T17:34:03.305Z,100483.47
2022-12-08T17:36:30.685Z,100491.69
2022-12-08T17:38:59.156Z,100480.09
2022-12-08T17:41:26.560Z,100482.88
2022-12-08T17:43:53.859Z,100485.72
2022-12-08T17:46:21.859Z,100478.47
2022-12-08T17:48:49.425Z,100479.66
2022-12-08T17:51:17.311Z,100476.22
2022-12-08T17:53:44.741Z,100477.72
2022-12-08T17:56:17.925Z,100474.28
2022-12-08T17:58:47.549Z,100477.06
2022-12-08T18:01:18.817Z,100474.03
2022-12-08T18:03:46.134Z,100477.78
2022-12-08T18:06:13.599Z,100479.78
2022-12-08T18:08:41.227Z,100479.50
2022-12-08T18:11:13.535Z,100478.31
2022-12-08T18:13:41.124Z,100480.94
2022-12-08T18:16:08.457Z,100474.28
2022-12-08T18:18:35.744Z,100466.69
2022-12-08T18:21:03.019Z,100478.56
2022-12-08T18:23:55.660Z,100473.31
2022-12-08T18:26:23.263Z,100478.19
2022-12-08T18:28:50.639Z,100477.50
2022-12-08T18:31:19.933Z,100473.44
2022-12-08T18:33:47.833Z,100486.00
2022-12-08T18:36:16.673Z,100478.22
2022-12-08T18:38:44.114Z,100479.03
2022-12-08T18:41:13.070Z,100479.94
2022-12-08T18:43:40.786Z,100476.44
2022-12-08T18:46:09.785Z,100487.56
2022-12-08T18:48:38.489Z,100474.34
2022-12-08T18:51:10.618Z,100481.53
2022-12-08T18:53:38.868Z,100481.31
2022-12-08T18:56:07.023Z,100478.13
2022-12-08T18:58:34.471Z,100475.53
2022-12-08T19:01:01.857Z,100478.47
2022-12-08T19:03:29.496Z,100477.66
2022-12-08T19:06:04.142Z,100478.56
2022-12-08T19:08:31.915Z,100482.16
2022-12-08T19:10:59.580Z,100481.97
2022-12-08T19:13:27.477Z,100472.84
2022-12-08T19:15:54.779Z,100478.69
2022-12-08T19:18:22.557Z,100469.25
2022-12-08T19:20:50.025Z,100475.44
2022-12-08T19:23:17.390Z,100474.03
2022-12-08T19:25:44.663Z,100480.84
2022-12-08T19:28:12.131Z,100478.91
2022-12-08T19:30:39.532Z,100480.25
2022-12-08T19:33:06.991Z,100478.13
2022-12-08T19:35:34.283Z,100477.31
2022-12-08T19:38:01.651Z,100475.81
2022-12-08T19:40:47.674Z,100478.47
2022-12-08T19:43:37.910Z,100484.72
2022-12-08T19:46:05.486Z,100482.56
2022-12-08T19:48:32.806Z,100487.88
2022-12-08T19:51:00.267Z,100486.38
2022-12-08T19:53:27.721Z,100480.28
2022-12-08T19:55:55.201Z,100479.19
2022-12-08T19:58:22.463Z,100480.06
2022-12-08T20:01:15.904Z,100480.34
2022-12-08T20:03:43.313Z,100479.56
2022-12-08T20:06:36.427Z,100483.91
2022-12-08T20:09:03.885Z,100475.25
2022-12-08T20:11:31.113Z,100476.75
2022-12-08T20:14:00.421Z,100478.81
2022-12-08T20:16:27.814Z,100474.81
2022-12-08T20:18:55.122Z,100477.66
2022-12-08T20:21:22.546Z,100479.94
2022-12-08T20:23:49.992Z,100478.50
2022-12-08T20:26:18.903Z,100483.63
2022-12-08T20:28:46.308Z,100481.88
2022-12-08T20:31:20.827Z,100486.16
2022-12-08T20:33:48.846Z,100484.28
2022-12-08T20:36:19.984Z,100482.88
2022-12-08T20:38:48.259Z,100473.31
2022-12-08T20:41:16.224Z,100481.78
2022-12-08T20:43:44.553Z,100478.78
2022-12-08T20:46:13.311Z,100485.28
2022-12-08T20:48:41.017Z,100489.72
2022-12-08T20:51:08.691Z,100479.25
2022-12-08T20:53:36.295Z,100483.50
2022-12-08T20:56:28.832Z,100474.47
2022-12-08T20:58:56.316Z,100476.84
2022-12-08T21:01:39.280Z,100486.25
2022-12-08T21:04:06.887Z,100492.56
2022-12-08T21:06:34.465Z,100494.84
2022-12-08T21:09:01.880Z,100486.25
2022-12-08T21:11:29.513Z,100488.56
2022-12-08T21:13:57.018Z,100487.06
2022-12-08T21:16:24.313Z,100495.06
2022-12-08T21:18:51.971Z,100493.66
2022-12-08T21:21:19.392Z,100501.16
2022-12-08T21:23:46.941Z,100491.75
2022-12-08T21:26:21.713Z,100488.19
2022-12-08T21:28:49.190Z,100492.06
2022-12-08T21:31:19.116Z,100496.88
2022-12-08T21:33:46.784Z,100496.59
2022-12-08T21:36:16.199Z,100500.50
2022-12-08T21:38:44.011Z,100484.59
2022-12-08T21:41:13.550Z,100493.09
2022-12-08T21:43:41.450Z,100492.69
2022-12-08T21:46:16.834Z,100492.13
2022-12-08T21:48:44.648Z,100497.72
2022-12-08T21:51:12.924Z,100490.03
2022-12-08T21:53:40.473Z,100497.72
2022-12-08T21:56:08.777Z,100495.69
2022-12-08T21:58:36.339Z,100487.59
2022-12-08T22:01:07.397Z,100492.66
2022-12-08T22:03:35.137Z,100496.44
2022-12-08T22:06:10.148Z,100502.63
2022-12-08T22:08:37.877Z,100506.47
2022-12-08T22:11:05.593Z,100502.75
2022-12-08T22:13:34.308Z,100504.47
2022-12-08T22:16:03.606Z,100505.44
2022-12-08T22:18:31.349Z,100508.66
2022-12-08T22:20:58.835Z,100503.06
2022-12-08T22:23:26.481Z,100510.66
2022-12-08T22:26:00.490Z,100513.53
2022-12-08T22:28:30.091Z,100506.19
2022-12-08T22:30:57.467Z,100509.56
2022-12-08T22:33:24.832Z,100523.28
2022-12-08T22:36:04.705Z,100522.34
2022-12-08T22:38:35.678Z,100513.66
2022-12-08T22:41:04.891Z,100520.59
2022-12-08T22:43:33.040Z,100522.88
2022-12-08T22:46:00.755Z,100531.72
2022-12-08T22:48:28.207Z,100534.69
2022-12-08T22:51:02.070Z,100532.09
2022-12-08T22:53:29.483Z,100534.97
2022-12-08T22:55:56.891Z,100539.69
2022-12-08T22:58:24.331Z,100540.56
2022-12-08T23:00:52.173Z,100540.78
2022-12-08T23:03:19.669Z,100536.66
2022-12-08T23:05:47.257Z,100546.09
2022-12-08T23:08:16.512Z,100544.66
2022-12-08T23:10:44.731Z,100536.34
2022-12-08T23:13:18.162Z,100537.34
2022-12-08T23:15:45.652Z,100545.63
2022-12-08T23:18:15.829Z,100547.56
2022-12-08T23:20:43.240Z,100552.09
2022-12-08T23:23:10.562Z,100541.00
2022-12-08T23:25:41.679Z,100541.09
2022-12-08T23:28:09.821Z,100550.44
2022-12-08T23:30:40.004Z,100545.50
2022-12-08T23:33:07.478Z,100543.81
2022-12-08T23:35:34.924Z,100537.78
2022-12-08T23:38:02.500Z,100527.00
2022-12-08T23:40:29.954Z,100528.97
2022-12-08T23:42:57.738Z,100521.47
2022-12-08T23:45:25.180Z,100525.69
2022-12-08T23:47:52.708Z,100533.31
2022-12-08T23:50:20.189Z,100545.41
2022-12-08T23:52:47.754Z,100535.81
2022-12-08T23:55:15.114Z,100539.22
2022-12-08T23:57:42.517Z,100545.81
